ENT5LF LDZD-LGRP
Flight info
| Callsign | ENT5LF |
|---|---|
| Flight time | N/A |
| Altitude | 35000 |
| Route | SPL DCT KONUV DCT BITLA/N0380F230 N132 KEA/N0439F350 UL52 RUPUM DCT RDS UN128 BANRO |
| Aircraft | B738/M-VOLDFGIRWYHJ1X/EB1 |
Departure
| Time | 2026-05-06 16:13 |
|---|---|
| Airport | Zadar Airport (LDZD) |
Arrival
| Time | N/A |
|---|---|
| Airport | Rhodes International Airport "Diagoras" (LGRP) |
| Time | Latitude | Longitude | Altitude | Speed | Heading |
|---|---|---|---|---|---|
| 2026-05-06 15:46 | 44.09748 | 15.35482 | 269 ft | 0 kts | 301° |
| 2026-05-06 16:04 | 44.09740 | 15.35499 | 269 ft | 4 kts | 308° |
| 2026-05-06 16:04 | 44.09721 | 15.35525 | 269 ft | 4 kts | 327° |
| 2026-05-06 16:04 | 44.09697 | 15.35540 | 269 ft | 4 kts | 350° |
| 2026-05-06 16:05 | 44.09685 | 15.35542 | 269 ft | 1 kts | 358° |
| 2026-05-06 16:07 | 44.09691 | 15.35542 | 269 ft | 3 kts | 358° |
| 2026-05-06 16:07 | 44.09743 | 15.35540 | 269 ft | 12 kts | 358° |
| 2026-05-06 16:07 | 44.09857 | 15.35526 | 269 ft | 21 kts | 350° |
| 2026-05-06 16:07 | 44.09993 | 15.35398 | 269 ft | 26 kts | 315° |
| 2026-05-06 16:08 | 44.10121 | 15.35225 | 269 ft | 25 kts | 316° |
| 2026-05-06 16:08 | 44.10240 | 15.35064 | 269 ft | 23 kts | 315° |
| 2026-05-06 16:08 | 44.10352 | 15.34909 | 269 ft | 22 kts | 315° |
| 2026-05-06 16:08 | 44.10463 | 15.34761 | 269 ft | 22 kts | 316° |
| 2026-05-06 16:09 | 44.10568 | 15.34617 | 269 ft | 21 kts | 315° |
| 2026-05-06 16:09 | 44.10672 | 15.34478 | 269 ft | 21 kts | 316° |
| 2026-05-06 16:09 | 44.10773 | 15.34341 | 269 ft | 20 kts | 315° |
| 2026-05-06 16:09 | 44.10871 | 15.34209 | 269 ft | 19 kts | 316° |
| 2026-05-06 16:10 | 44.10966 | 15.34082 | 269 ft | 19 kts | 316° |
| 2026-05-06 16:10 | 44.11057 | 15.33957 | 269 ft | 18 kts | 315° |
| 2026-05-06 16:10 | 44.11145 | 15.33838 | 269 ft | 17 kts | 316° |
| 2026-05-06 16:10 | 44.11230 | 15.33723 | 269 ft | 17 kts | 315° |
| 2026-05-06 16:11 | 44.11312 | 15.33612 | 269 ft | 16 kts | 316° |
| 2026-05-06 16:11 | 44.11390 | 15.33507 | 269 ft | 16 kts | 315° |
| 2026-05-06 16:11 | 44.11466 | 15.33404 | 268 ft | 15 kts | 315° |
| 2026-05-06 16:11 | 44.11543 | 15.33417 | 268 ft | 13 kts | 51° |
| 2026-05-06 16:12 | 44.11607 | 15.33518 | 262 ft | 16 kts | 47° |
| 2026-05-06 16:12 | 44.11587 | 15.33650 | 259 ft | 16 kts | 136° |
| 2026-05-06 16:12 | 44.11451 | 15.33831 | 261 ft | 48 kts | 136° |
| 2026-05-06 16:12 | 44.11034 | 15.34393 | 262 ft | 117 kts | 136° |
| 2026-05-06 16:13 | 44.10348 | 15.35329 | 526 ft | 148 kts | 135° |
| 2026-05-06 16:13 | 44.09578 | 15.36349 | 1224 ft | 158 kts | 136° |
| 2026-05-06 16:13 | 44.08781 | 15.37406 | 2044 ft | 163 kts | 138° |
| 2026-05-06 16:13 | 44.07949 | 15.38526 | 2765 ft | 177 kts | 138° |
| 2026-05-06 16:14 | 44.06991 | 15.39815 | 3050 ft | 204 kts | 139° |
| 2026-05-06 16:14 | 44.05920 | 15.41261 | 3367 ft | 223 kts | 138° |
| 2026-05-06 16:14 | 44.04783 | 15.42798 | 3908 ft | 233 kts | 138° |
| 2026-05-06 16:14 | 44.03563 | 15.44445 | 4228 ft | 255 kts | 138° |
| 2026-05-06 16:15 | 44.02251 | 15.46215 | 4882 ft | 268 kts | 139° |
| 2026-05-06 16:15 | 44.00899 | 15.48040 | 5711 ft | 273 kts | 138° |
| 2026-05-06 16:15 | 43.99517 | 15.49912 | 6504 ft | 281 kts | 137° |
| 2026-05-06 16:15 | 43.98265 | 15.51978 | 7373 ft | 284 kts | 132° |
| 2026-05-06 16:16 | 43.96990 | 15.54103 | 8181 ft | 290 kts | 134° |
| 2026-05-06 16:16 | 43.95680 | 15.56248 | 9058 ft | 292 kts | 134° |
| 2026-05-06 16:16 | 43.94355 | 15.58407 | 9909 ft | 296 kts | 134° |
| 2026-05-06 16:16 | 43.92999 | 15.60612 | 10502 ft | 309 kts | 134° |
| 2026-05-06 16:17 | 43.91540 | 15.62974 | 10700 ft | 335 kts | 134° |
| 2026-05-06 16:17 | 43.89995 | 15.65482 | 11208 ft | 347 kts | 134° |
| 2026-05-06 16:17 | 43.88417 | 15.68049 | 11946 ft | 351 kts | 133° |
| 2026-05-06 16:17 | 43.86831 | 15.70633 | 12774 ft | 353 kts | 133° |
| 2026-05-06 16:18 | 43.85248 | 15.73209 | 13498 ft | 359 kts | 133° |
| 2026-05-06 16:18 | 43.83618 | 15.75858 | 14219 ft | 363 kts | 134° |
| 2026-05-06 16:18 | 43.81974 | 15.78527 | 14933 ft | 366 kts | 134° |
| 2026-05-06 16:18 | 43.80318 | 15.81213 | 15660 ft | 368 kts | 134° |
| 2026-05-06 16:19 | 43.78646 | 15.83922 | 16343 ft | 372 kts | 134° |
| 2026-05-06 16:19 | 43.76955 | 15.86657 | 17001 ft | 376 kts | 134° |
| 2026-05-06 16:19 | 43.75247 | 15.89415 | 17683 ft | 380 kts | 134° |
| 2026-05-06 16:19 | 43.73522 | 15.92200 | 18343 ft | 383 kts | 134° |
| 2026-05-06 16:20 | 43.71776 | 15.95017 | 18825 ft | 389 kts | 134° |
| 2026-05-06 16:20 | 43.70023 | 15.97841 | 19307 ft | 394 kts | 134° |
| 2026-05-06 16:20 | 43.68228 | 16.00732 | 19863 ft | 398 kts | 134° |
| 2026-05-06 16:20 | 43.66413 | 16.03651 | 20409 ft | 403 kts | 134° |
| 2026-05-06 16:21 | 43.64577 | 16.06601 | 20917 ft | 408 kts | 134° |
| 2026-05-06 16:21 | 43.62715 | 16.09589 | 21417 ft | 413 kts | 134° |
| 2026-05-06 16:21 | 43.60833 | 16.12606 | 21905 ft | 417 kts | 134° |
| 2026-05-06 16:21 | 43.58930 | 16.15656 | 22413 ft | 421 kts | 134° |
| 2026-05-06 16:22 | 43.57009 | 16.18731 | 22919 ft | 426 kts | 134° |
| 2026-05-06 16:22 | 43.55093 | 16.21795 | 23389 ft | 430 kts | 134° |
| 2026-05-06 16:22 | 43.53130 | 16.24932 | 23828 ft | 434 kts | 134° |
| 2026-05-06 16:22 | 43.51153 | 16.28086 | 24278 ft | 436 kts | 134° |
| 2026-05-06 16:23 | 43.49186 | 16.31269 | 24731 ft | 438 kts | 131° |
| 2026-05-06 16:23 | 43.47372 | 16.34668 | 25160 ft | 443 kts | 128° |
| 2026-05-06 16:23 | 43.45665 | 16.38213 | 25571 ft | 446 kts | 126° |
| 2026-05-06 16:23 | 43.43992 | 16.41826 | 25975 ft | 449 kts | 126° |
| 2026-05-06 16:24 | 43.42313 | 16.45464 | 26369 ft | 451 kts | 126° |
| 2026-05-06 16:24 | 43.40616 | 16.49106 | 26779 ft | 454 kts | 126° |
| 2026-05-06 16:24 | 43.38914 | 16.52708 | 27155 ft | 456 kts | 126° |
| 2026-05-06 16:24 | 43.37168 | 16.56361 | 27536 ft | 459 kts | 127° |
| 2026-05-06 16:25 | 43.35399 | 16.60030 | 27907 ft | 461 kts | 127° |
| 2026-05-06 16:25 | 43.33616 | 16.63710 | 28244 ft | 464 kts | 127° |
| 2026-05-06 16:25 | 43.31818 | 16.67410 | 28584 ft | 467 kts | 127° |
| 2026-05-06 16:25 | 43.30006 | 16.71132 | 28902 ft | 470 kts | 127° |
| 2026-05-06 16:26 | 43.28182 | 16.74872 | 29231 ft | 473 kts | 127° |
| 2026-05-06 16:26 | 43.26350 | 16.78628 | 29571 ft | 475 kts | 127° |
| 2026-05-06 16:26 | 43.24531 | 16.82355 | 29886 ft | 478 kts | 127° |
| 2026-05-06 16:26 | 43.22677 | 16.86148 | 30162 ft | 480 kts | 127° |
| 2026-05-06 16:27 | 43.20810 | 16.89962 | 30416 ft | 483 kts | 127° |
| 2026-05-06 16:27 | 43.18938 | 16.93785 | 30703 ft | 483 kts | 127° |
| 2026-05-06 16:27 | 43.17067 | 16.97601 | 31123 ft | 481 kts | 127° |
| 2026-05-06 16:27 | 43.15205 | 17.01396 | 31551 ft | 479 kts | 127° |
| 2026-05-06 16:28 | 43.13350 | 17.05170 | 31933 ft | 477 kts | 127° |
| 2026-05-06 16:28 | 43.11496 | 17.08936 | 32265 ft | 477 kts | 127° |
| 2026-05-06 16:28 | 43.09640 | 17.12698 | 32611 ft | 476 kts | 127° |
| 2026-05-06 16:28 | 43.07787 | 17.16450 | 32980 ft | 475 kts | 127° |
| 2026-05-06 16:29 | 43.05965 | 17.20136 | 33344 ft | 474 kts | 127° |
| 2026-05-06 16:29 | 43.04120 | 17.23865 | 33688 ft | 473 kts | 127° |
| 2026-05-06 16:29 | 43.02274 | 17.27589 | 34013 ft | 472 kts | 127° |
| 2026-05-06 16:29 | 43.00434 | 17.31297 | 34316 ft | 471 kts | 127° |
| 2026-05-06 16:30 | 42.98595 | 17.34999 | 34616 ft | 470 kts | 127° |
| 2026-05-06 16:30 | 42.97379 | 17.37445 | 34797 ft | 470 kts | 127° |
| 2026-05-06 16:30 | 42.94926 | 17.42370 | 35036 ft | 471 kts | 127° |
| 2026-05-06 16:30 | 42.93073 | 17.46084 | 35023 ft | 474 kts | 127° |
| 2026-05-06 16:31 | 42.89363 | 17.53509 | 35024 ft | 472 kts | 127° |
| 2026-05-06 16:31 | 42.85717 | 17.60793 | 35029 ft | 467 kts | 127° |
| 2026-05-06 16:32 | 42.82048 | 17.68100 | 35039 ft | 467 kts | 127° |
| 2026-05-06 16:32 | 42.78374 | 17.75398 | 35039 ft | 467 kts | 127° |
| 2026-05-06 16:33 | 42.74696 | 17.82687 | 35038 ft | 467 kts | 127° |
| 2026-05-06 16:34 | 42.69189 | 17.93570 | 35040 ft | 468 kts | 127° |
| 2026-05-06 16:34 | 42.65483 | 18.00870 | 35047 ft | 469 kts | 127° |
| 2026-05-06 16:35 | 42.61772 | 18.08163 | 35053 ft | 470 kts | 127° |
| 2026-05-06 16:35 | 42.58043 | 18.15476 | 35046 ft | 472 kts | 127° |
| 2026-05-06 16:36 | 42.54302 | 18.22791 | 35047 ft | 473 kts | 127° |
| 2026-05-06 16:36 | 42.50573 | 18.30068 | 35051 ft | 474 kts | 127° |
| 2026-05-06 16:37 | 42.46804 | 18.37407 | 35050 ft | 475 kts | 127° |
| 2026-05-06 16:37 | 42.43021 | 18.44758 | 35050 ft | 476 kts | 127° |
| 2026-05-06 16:38 | 42.39246 | 18.52139 | 35075 ft | 477 kts | 127° |
| 2026-05-06 16:38 | 42.35497 | 18.59489 | 35075 ft | 479 kts | 127° |
| 2026-05-06 16:39 | 42.31709 | 18.66896 | 35074 ft | 480 kts | 127° |
| 2026-05-06 16:39 | 42.27902 | 18.74316 | 35076 ft | 481 kts | 127° |
| 2026-05-06 16:40 | 42.24084 | 18.81735 | 35076 ft | 482 kts | 127° |
| 2026-05-06 16:40 | 42.20253 | 18.89160 | 35070 ft | 482 kts | 127° |
| 2026-05-06 16:41 | 42.16439 | 18.96535 | 35069 ft | 483 kts | 127° |
| 2026-05-06 16:41 | 42.12591 | 19.03958 | 35073 ft | 483 kts | 127° |
| 2026-05-06 16:42 | 42.08735 | 19.11378 | 35075 ft | 484 kts | 127° |
| 2026-05-06 16:42 | 42.04868 | 19.18800 | 35076 ft | 485 kts | 127° |
| 2026-05-06 16:43 | 42.01015 | 19.26178 | 35063 ft | 485 kts | 127° |
| 2026-05-06 16:43 | 41.97133 | 19.33595 | 35079 ft | 485 kts | 127° |
| 2026-05-06 16:44 | 41.93243 | 19.41005 | 35072 ft | 486 kts | 127° |
| 2026-05-06 16:44 | 41.89346 | 19.48414 | 35079 ft | 486 kts | 127° |
| 2026-05-06 16:45 | 41.85467 | 19.55769 | 35060 ft | 486 kts | 127° |
| 2026-05-06 16:45 | 41.81564 | 19.63151 | 35075 ft | 485 kts | 127° |
| 2026-05-06 16:46 | 41.77653 | 19.70531 | 35071 ft | 486 kts | 127° |
| 2026-05-06 16:46 | 41.73733 | 19.77911 | 35072 ft | 487 kts | 127° |
| 2026-05-06 16:47 | 41.69801 | 19.85295 | 35083 ft | 488 kts | 127° |
| 2026-05-06 16:47 | 41.65881 | 19.92636 | 35078 ft | 489 kts | 127° |
| 2026-05-06 16:48 | 41.61922 | 20.00035 | 35069 ft | 490 kts | 127° |
| 2026-05-06 16:48 | 41.57947 | 20.07446 | 35074 ft | 491 kts | 127° |
| 2026-05-06 16:49 | 41.53963 | 20.14856 | 35076 ft | 492 kts | 127° |
| 2026-05-06 16:49 | 41.49962 | 20.22279 | 35063 ft | 493 kts | 127° |
| 2026-05-06 16:50 | 41.45980 | 20.29649 | 35062 ft | 494 kts | 127° |
| 2026-05-06 16:50 | 41.41953 | 20.37084 | 35061 ft | 495 kts | 127° |
| 2026-05-06 16:51 | 41.37913 | 20.44525 | 35058 ft | 496 kts | 127° |
| 2026-05-06 16:51 | 41.33871 | 20.51951 | 35066 ft | 495 kts | 127° |
| 2026-05-06 16:52 | 41.29837 | 20.59346 | 35075 ft | 493 kts | 127° |
| 2026-05-06 16:52 | 41.25843 | 20.66650 | 35075 ft | 491 kts | 127° |
| 2026-05-06 16:53 | 41.21824 | 20.73981 | 35083 ft | 490 kts | 127° |
| 2026-05-06 16:53 | 41.17805 | 20.81296 | 35071 ft | 490 kts | 127° |
| 2026-05-06 16:54 | 41.13778 | 20.88606 | 35078 ft | 491 kts | 127° |
| 2026-05-06 16:54 | 41.09766 | 20.95874 | 35060 ft | 492 kts | 127° |
| 2026-05-06 16:55 | 41.05722 | 21.03182 | 35061 ft | 492 kts | 127° |
| 2026-05-06 16:55 | 41.01664 | 21.10497 | 35060 ft | 494 kts | 127° |
| 2026-05-06 16:56 | 40.97591 | 21.17824 | 35044 ft | 495 kts | 127° |
| 2026-05-06 16:56 | 40.93505 | 21.25158 | 35042 ft | 495 kts | 126° |
| 2026-05-06 16:57 | 40.89436 | 21.32435 | 35030 ft | 495 kts | 128° |
| 2026-05-06 16:57 | 40.84578 | 21.38820 | 35026 ft | 492 kts | 147° |
| 2026-05-06 16:58 | 40.78966 | 21.43984 | 35029 ft | 492 kts | 148° |
| 2026-05-06 16:58 | 40.73315 | 21.49102 | 35035 ft | 493 kts | 148° |
| 2026-05-06 16:59 | 40.67711 | 21.54242 | 35029 ft | 495 kts | 147° |
| 2026-05-06 16:59 | 40.62070 | 21.59455 | 35024 ft | 495 kts | 147° |
| 2026-05-06 17:00 | 40.56426 | 21.64677 | 35036 ft | 496 kts | 147° |
| 2026-05-06 17:00 | 40.50771 | 21.69896 | 35042 ft | 497 kts | 147° |
| 2026-05-06 17:01 | 40.45140 | 21.75077 | 35038 ft | 498 kts | 147° |
| 2026-05-06 17:01 | 40.39455 | 21.80295 | 35049 ft | 499 kts | 147° |
| 2026-05-06 17:02 | 40.33755 | 21.85516 | 35055 ft | 500 kts | 147° |
| 2026-05-06 17:02 | 40.28036 | 21.90744 | 35046 ft | 501 kts | 147° |
| 2026-05-06 17:03 | 40.22354 | 21.95928 | 35048 ft | 502 kts | 147° |
| 2026-05-06 17:03 | 40.16617 | 22.01150 | 35056 ft | 503 kts | 147° |
| 2026-05-06 17:04 | 40.10865 | 22.06375 | 35027 ft | 504 kts | 147° |
| 2026-05-06 17:04 | 40.05102 | 22.11599 | 35028 ft | 504 kts | 147° |
| 2026-05-06 17:05 | 39.99375 | 22.16780 | 35020 ft | 505 kts | 147° |
| 2026-05-06 17:05 | 39.93607 | 22.21986 | 35020 ft | 504 kts | 147° |
| 2026-05-06 17:06 | 39.87849 | 22.27173 | 35027 ft | 503 kts | 147° |
| 2026-05-06 17:06 | 39.82096 | 22.32344 | 35028 ft | 502 kts | 147° |
| 2026-05-06 17:07 | 39.76354 | 22.37495 | 35015 ft | 501 kts | 147° |
| 2026-05-06 17:07 | 39.70655 | 22.42598 | 35019 ft | 500 kts | 147° |
| 2026-05-06 17:08 | 39.64923 | 22.47720 | 35018 ft | 500 kts | 147° |
| 2026-05-06 17:08 | 39.59187 | 22.52833 | 35019 ft | 500 kts | 147° |
| 2026-05-06 17:09 | 39.53445 | 22.57942 | 35021 ft | 501 kts | 147° |
| 2026-05-06 17:09 | 39.48673 | 22.62180 | 35026 ft | 501 kts | 147° |
| 2026-05-06 17:10 | 39.41987 | 22.68106 | 35023 ft | 501 kts | 147° |
| 2026-05-06 17:10 | 39.36227 | 22.73200 | 35021 ft | 502 kts | 147° |
| 2026-05-06 17:11 | 39.30463 | 22.78287 | 35025 ft | 502 kts | 147° |
| 2026-05-06 17:11 | 39.25028 | 22.83841 | 35026 ft | 503 kts | 132° |
| 2026-05-06 17:12 | 39.23063 | 22.86864 | 35016 ft | 502 kts | 123° |